Latest Coastal Weather Observations for Truscott

IDW60701

Issued at 10:13 am WST Saturday 27 May 2017 (issued every 10 minutes, with the page automatically refreshed every 10 minutes)

About coastal observations | Map of coastal stations | Coastal observations for WA | Marine services | Other Formats
Station Details ID: 001020 Name: TRUSCOTT Lat: -14.09 Lon: 126.39 Height: 51.0 m
Data from the previous 72 hours. | See also: Recent months at Truscott
Date/Time
WST
Temp
°C
Wind Pressure Rain since
9am
mm
Weather Cloud Vis
km
Sea
Height
m
Swell
Dir  Spd
kts
Gust
kts
hPa Trend Height
m
Period
s
Dir
27/10:00am 30.5 E 9 16 1012.8 - 0.0 - - 10 - - - -
27/09:30am 30.0 E 9 15 1012.9 - 0.0 - - 10 - - - -
27/09:00am 29.6 ESE 8 13 1012.7 - 0.0 - - 10 - - - -
27/08:30am 28.2 ESE 6 9 1013.2 - 0.0 - - 10 - - - -
27/08:00am 26.8 ESE 6 9 1013.2 - 0.0 - - 10 - - - -
27/07:30am 25.7 E 5 7 1013.2 - 0.0 - - 10 - - - -
27/07:00am 24.8 E 4 7 1012.9 - 0.0 - - 10 - - - -
27/06:30am 24.6 E 6 8 1012.6 - 0.0 - - 10 - - - -
27/06:00am 21.1 NE 4 6 1012.1 - 0.0 - - 10 - - - -
27/05:30am 23.8 SE 4 6 1011.8 - 0.0 - - 10 - - - -
27/05:00am 23.9 SSE 5 6 1011.6 - 0.0 - - 10 - - - -
27/04:30am 23.9 SSE 5 7 1011.4 - 0.0 - - 10 - - - -
27/04:00am 24.0 SSE 5 7 1011.4 - 0.0 - - 10 - - - -
27/03:30am 23.9 SSE 4 5 1011.4 - 0.0 - - 10 - - - -
27/03:00am 24.0 SSE 5 6 1011.0 - 0.0 - - 10 - - - -
27/02:30am 23.6 SSE 4 5 1011.4 - 0.0 - - 10 - - - -
27/02:00am 23.3 SSE 4 5 1011.6 - 0.0 - - 10 - - - -
27/01:30am 22.6 SSE 3 4 1012.0 - 0.0 - - 10 - - - -
27/01:00am 23.4 SE 4 5 1012.2 - 0.0 - - 10 - - - -
27/12:30am 23.7 SSE 4 5 1012.4 - 0.0 - - 10 - - - -
27/12:00am 23.4 SSE 4 6 1012.2 - 0.0 - - 10 - - - -
 
Date/Time
WST
Temp
°C
Wind Pressure Rain since
9am
mm
Weather Cloud Vis
km
Sea
Height
m
Swell
Dir  Spd
kts
Gust
kts
hPa Trend Height
m
Period
s
Dir
26/11:30pm 22.9 SE 4 5 1012.7 - 0.0 - - 10 - - - -
26/11:00pm 23.3 SE 4 6 1012.9 - 0.0 - - 10 - - - -
26/10:30pm 22.5 ESE 3 4 1013.1 - 0.0 - - 10 - - - -
26/10:00pm 22.7 CALM 0 0 1013.2 - 0.0 - - 10 - - - -
26/09:30pm 22.9 CALM 0 0 1013.2 - 0.0 - - 10 - - - -
26/09:00pm 23.3 CALM 0 0 1012.7 - 0.0 - - 10 - - - -
26/08:30pm 24.0 CALM 0 0 1013.0 - 0.0 - - 10 - - - -
26/08:00pm 24.2 ENE 3 4 1012.9 - 0.0 - - 10 - - - -
26/07:30pm 25.1 E 3 4 1012.7 - 0.0 - - 10 - - - -
26/07:00pm 26.3 ENE 3 4 1012.5 - 0.0 - - 10 - - - -
26/06:30pm 27.2 ENE 4 5 1012.1 - 0.0 - - 10 - - - -
26/06:00pm 28.0 ENE 6 9 1011.5 - 0.0 - - 10 - - - -
26/05:30pm 28.6 ENE 7 9 1011.5 - 0.0 - - 10 - - - -
26/05:00pm 29.0 ENE 8 13 1011.2 - 0.0 - - 10 - - - -
26/04:30pm 29.3 NE 7 11 1011.0 - 0.0 - - 10 - - - -
26/04:00pm 29.6 NE 8 12 1010.7 - 0.0 - - 10 - - - -
26/03:30pm 29.8 NE 10 17 1010.5 - 0.0 - - 10 - - - -
26/03:00pm 30.3 NE 11 17 1010.1 - 0.0 - - 10 - - - -
26/02:30pm 31.1 ENE 11 19 1010.4 - 0.0 - - 10 - - - -
26/02:00pm 31.3 NE 12 18 1010.5 - 0.0 - - 10 - - - -
26/01:30pm 31.5 ENE 12 20 1010.7 - 0.0 - - 10 - - - -
26/01:00pm 31.4 E 12 18 1011.2 - 0.0 - - 10 - - - -
26/12:30pm 31.4 ENE 12 17 1011.5 - 0.0 - - 10 - - - -
26/12:00pm 31.9 ENE 10 19 1011.5 - 0.0 - - 10 - - - -
26/11:30am 31.5 E 10 16 1012.2 - 0.0 - - 10 - - - -
26/11:00am 31.1 E 11 17 1012.5 - 0.0 - - 10 - - - -
26/10:30am 31.1 E 9 15 1012.9 - 0.0 - - 10 - - - -
26/10:00am 30.6 E 10 17 1013.2 - 0.0 - - 10 - - - -
26/09:30am 30.3 E 9 14 1013.4 - 0.0 - - 10 - - - -
26/09:00am 29.8 E 8 16 1013.1 - 0.0 - - 10 - - - -
26/08:30am 29.4 E 7 10 1013.5 - 0.0 - - 10 - - - -
26/08:00am 28.1 ESE 6 10 1013.3 - 0.0 - - 10 - - - -
26/07:30am 26.7 ESE 4 7 1013.1 - 0.0 - - 10 - - - -
26/07:00am 25.4 SE 3 5 1012.8 - 0.0 - - 10 - - - -
26/06:30am 23.4 SSE 4 5 1012.6 - 0.0 - - 10 - - - -
26/06:00am 22.7 S 4 4 1012.0 - 0.0 - - 10 - - - -
26/05:30am 21.8 S 4 4 1011.9 - 0.0 - - 10 - - - -
26/05:00am 21.9 S 3 4 1011.6 - 0.0 - - 10 - - - -
26/04:30am 22.4 S 3 4 1011.5 - 0.0 - - 10 - - - -
26/04:00am 22.8 S 4 4 1011.5 - 0.0 - - 10 - - - -
26/03:30am 22.7 S 4 5 1011.4 - 0.0 - - 10 - - - -
26/03:00am 22.6 S 5 6 1011.2 - 0.0 - - 10 - - - -
26/02:30am 22.5 S 4 5 1011.7 - 0.0 - - 10 - - - -
26/02:00am 22.4 S 3 4 1011.8 - 0.0 - - 10 - - - -
26/01:30am 23.0 SSW 3 4 1011.9 - 0.0 - - 10 - - - -
26/01:00am 22.8 S 3 4 1012.4 - 0.0 - - 10 - - - -
26/12:30am 22.6 CALM 0 0 1012.5 - 0.0 - - 10 - - - -
26/12:00am 22.6 NE 2 3 1012.3 - 0.0 - - 10 - - - -
 
Date/Time
WST
Temp
°C
Wind Pressure Rain since
9am
mm
Weather Cloud Vis
km
Sea
Height
m
Swell
Dir  Spd
kts
Gust
kts
hPa Trend Height
m
Period
s
Dir
25/11:30pm 22.7 CALM 0 0 1012.7 - 0.0 - - 10 - - - -
25/11:00pm 22.9 NE 1 4 1012.8 - 0.0 - - 10 - - - -
25/10:30pm 23.2 NE 2 3 1013.0 - 0.0 - - 10 - - - -
25/10:00pm 23.8 CALM 0 0 1013.2 - 0.0 - - 10 - - - -
25/09:30pm 24.7 NE 3 5 1013.2 - 0.0 - - 10 - - - -
25/09:00pm 24.5 NE 4 5 1012.9 - 0.0 - - 10 - - - -
25/08:30pm 24.4 NE 3 4 1013.2 - 0.0 - - 10 - - - -
25/08:00pm 25.3 NE 1 4 1013.1 - 0.0 - - 10 - - - -
25/07:30pm 25.9 NNE 3 5 1012.9 - 0.0 - - 10 - - - -
25/07:00pm 26.9 NE 3 5 1012.6 - 0.0 - - 10 - - - -
25/06:30pm 27.6 ENE 6 8 1012.2 - 0.0 - - 10 - - - -
25/06:00pm 28.0 ENE 7 11 1011.7 - 0.0 - - 10 - - - -
25/05:30pm 28.4 ENE 8 15 1011.7 - 0.0 - - 10 - - - -
25/05:00pm 29.2 ENE 8 14 1011.2 - 0.0 - - 10 - - - -
25/04:30pm 30.1 ENE 10 17 1010.9 - 0.0 - - 10 - - - -
25/04:00pm 31.1 ENE 9 15 1010.5 - 0.0 - - 10 - - - -
25/03:30pm 31.8 ENE 9 15 1010.3 - 0.0 - - 10 - - - -
25/03:00pm 32.1 E 8 16 1009.8 - 0.0 - - 10 - - - -
25/02:30pm 32.1 ENE 11 16 1010.1 - 0.0 - - 10 - - - -
25/02:00pm 32.9 ENE 10 16 1010.2 - 0.0 - - 10 - - - -
25/01:30pm 32.1 ENE 11 17 1010.4 - 0.0 - - 10 - - - -
25/01:00pm 32.3 ENE 10 18 1011.0 - 0.0 - - 10 - - - -
25/12:30pm 32.2 E 10 16 1011.4 - 0.0 - - 10 - - - -
25/12:00pm 32.0 E 11 16 1011.5 - 0.0 - - 10 - - - -
25/11:30am 31.4 ENE 11 17 1012.3 - 0.0 - - 10 - - - -
25/11:00am 31.6 ENE 9 14 1012.7 - 0.0 - - 10 - - - -
25/10:30am 31.5 E 9 15 1012.9 - 0.0 - - 10 - - - -
25/10:00am 30.3 E 10 15 1013.3 - 0.0 - - 10 - - - -
25/09:30am 30.5 E 9 15 1013.5 - 0.0 - - 10 - - - -
25/09:00am 30.8 E 9 15 1013.3 - 0.0 - - 10 - - - -
25/08:30am 29.9 ESE 6 9 1013.5 - 0.0 - - 10 - - - -
25/08:00am 28.5 ESE 5 8 1013.2 - 0.0 - - 10 - - - -
25/07:30am 26.8 ESE 4 5 1012.9 - 0.0 - - 10 - - - -
25/07:00am 25.8 SSE 4 5 1012.6 - 0.0 - - 10 - - - -
25/06:30am 23.2 S 3 4 1012.4 - 0.0 - - 10 - - - -
25/06:00am 22.2 S 3 4 1011.9 - 0.0 - - 10 - - - -
25/05:30am 22.7 CALM 0 0 1012.1 - 0.0 - - 10 - - - -
25/05:00am 23.2 SSW 3 3 1011.8 - 0.0 - - 10 - - - -
25/04:30am 23.3 SSW 3 3 1011.7 - 0.0 - - 10 - - - -
25/04:00am 24.1 SSW 3 4 1011.7 - 0.0 - - 10 - - - -
25/03:30am 24.3 CALM 0 3 1011.8 - 0.0 - - 10 - - - -
25/03:00am 24.9 SW 3 4 1011.5 - 0.0 - - 10 - - - -
25/02:30am 24.7 SSW 3 5 1011.8 - 0.0 - - 10 - - - -
25/02:00am 23.6 SW 3 4 1011.8 - 0.0 - - 10 - - - -
25/01:30am 24.3 SSW 4 4 1012.0 - 0.0 - - 10 - - - -
25/01:00am 24.6 WSW 3 4 1012.3 - 0.0 - - 10 - - - -
25/12:30am 24.4 CALM 0 0 1012.5 - 0.0 - - 10 - - - -
25/12:00am 24.2 SE 3 4 1012.2 - 0.0 - - 10 - - - -
 
Date/Time
WST
Temp
°C
Wind Pressure Rain since
9am
mm
Weather Cloud Vis
km
Sea
Height
m
Swell
Dir  Spd
kts
Gust
kts
hPa Trend Height
m
Period
s
Dir
24/11:30pm 24.3 SE 3 4 1012.6 - 0.0 - - 10 - - - -
24/11:00pm 24.5 ESE 3 5 1012.7 - 0.0 - - 10 - - - -
24/10:30pm 24.2 SE 4 5 1012.9 - 0.0 - - 10 - - - -
24/10:00pm 24.1 SE 4 5 1012.8 - 0.0 - - 10 - - - -
24/09:30pm 24.1 ESE 4 5 1012.8 - 0.0 - - 10 - - - -
24/09:00pm 25.0 E 4 5 1012.6 - 0.0 - - 10 - - - -
24/08:30pm 24.7 E 4 5 1012.9 - 0.0 - - 10 - - - -
24/08:00pm 25.1 ENE 3 4 1013.0 - 0.0 - - 10 - - - -
24/07:30pm 25.8 ENE 3 4 1012.7 - 0.0 - - 10 - - - -
24/07:00pm 27.5 ENE 4 6 1012.4 - 0.0 - - 10 - - - -
24/06:30pm 28.4 ENE 5 6 1012.0 - 0.0 - - 10 - - - -
24/06:00pm 28.7 ENE 5 8 1011.2 - 0.0 - - 10 - - - -
24/05:30pm 29.2 ENE 6 10 1011.1 - 0.0 - - 10 - - - -
24/05:00pm 30.3 ENE 8 13 1010.7 - 0.0 - - 10 - - - -
24/04:30pm 31.4 ENE 8 13 1010.4 - 0.0 - - 10 - - - -
24/04:00pm 32.0 ENE 9 17 1010.0 - 0.0 - - 10 - - - -
24/03:30pm 32.4 NE 10 16 1009.7 - 0.0 - - 10 - - - -
24/03:00pm 33.0 NE 9 13 1009.2 - 0.0 - - 10 - - - -
24/02:30pm 33.7 ENE 8 13 1009.6 - 0.0 - - 10 - - - -
24/02:00pm 34.6 ENE 7 14 1009.7 - 0.0 - - 10 - - - -
24/01:30pm 33.9 E 10 14 1009.9 - 0.0 - - 10 - - - -
24/01:00pm 34.4 ENE 10 16 1010.3 - 0.0 - - 10 - - - -
24/12:30pm 33.9 E 9 15 1010.8 - 0.0 - - 10 - - - -
24/12:00pm 33.6 E 9 15 1011.0 - 0.0 - - 10 - - - -
24/11:30am 32.8 E 9 15 1011.9 - 0.0 - - 10 - - - -
24/11:00am 32.4 E 9 13 1012.3 - 0.0 - - 10 - - - -
24/10:30am 31.7 E 11 15 1012.7 - 0.0 - - 10 - - - -

Other Formats:

Comma delimited format used in spreadsheet applications
http://www.bom.gov.au/fwo/IDW60701/IDW60701.95101.axf

JavaScript Object Notation format (JSON) in row-major order
http://www.bom.gov.au/fwo/IDW60701/IDW60701.95101.json